sensor_id;sensor_type;location;lat;lon;timestamp;P1;durP1;ratioP1;P2;durP2;ratioP2
25127;SDS011;13107;51.304;6.866;2023-05-16T00:00:49;9.57;;;6.55;;
25127;SDS011;13107;51.304;6.866;2023-05-16T00:04:53;9.15;;;6.35;;
25127;SDS011;13107;51.304;6.866;2023-05-16T00:08:55;10.43;;;6.03;;
25127;SDS011;13107;51.304;6.866;2023-05-16T00:12:56;8.95;;;6.18;;
25127;SDS011;13107;51.304;6.866;2023-05-16T00:16:58;8.88;;;4.82;;
25127;SDS011;13107;51.304;6.866;2023-05-16T00:21:01;8.15;;;4.55;;
25127;SDS011;13107;51.304;6.866;2023-05-16T00:25:06;6.30;;;4.40;;
25127;SDS011;13107;51.304;6.866;2023-05-16T00:29:11;6.95;;;4.62;;
25127;SDS011;13107;51.304;6.866;2023-05-16T00:33:13;8.57;;;5.72;;
25127;SDS011;13107;51.304;6.866;2023-05-16T00:37:15;9.50;;;7.22;;
25127;SDS011;13107;51.304;6.866;2023-05-16T00:41:16;9.18;;;7.18;;
25127;SDS011;13107;51.304;6.866;2023-05-16T00:45:18;7.55;;;6.00;;
25127;SDS011;13107;51.304;6.866;2023-05-16T00:49:20;7.82;;;5.75;;
25127;SDS011;13107;51.304;6.866;2023-05-16T00:53:22;9.13;;;4.60;;
25127;SDS011;13107;51.304;6.866;2023-05-16T00:57:25;6.32;;;3.53;;
25127;SDS011;13107;51.304;6.866;2023-05-16T01:01:27;11.15;;;3.70;;
25127;SDS011;13107;51.304;6.866;2023-05-16T01:05:29;7.43;;;3.37;;
25127;SDS011;13107;51.304;6.866;2023-05-16T01:09:32;7.68;;;3.80;;
25127;SDS011;13107;51.304;6.866;2023-05-16T01:13:44;7.55;;;3.00;;
25127;SDS011;13107;51.304;6.866;2023-05-16T01:18:02;6.72;;;3.20;;
25127;SDS011;13107;51.304;6.866;2023-05-16T01:26:27;3.20;;;2.33;;
25127;SDS011;13107;51.304;6.866;2023-05-16T01:30:34;8.82;;;2.67;;
25127;SDS011;13107;51.304;6.866;2023-05-16T01:34:37;8.20;;;2.75;;
25127;SDS011;13107;51.304;6.866;2023-05-16T01:38:50;6.18;;;2.53;;
25127;SDS011;13107;51.304;6.866;2023-05-16T01:43:04;9.02;;;3.00;;
25127;SDS011;13107;51.304;6.866;2023-05-16T01:47:12;9.93;;;2.87;;
25127;SDS011;13107;51.304;6.866;2023-05-16T01:51:17;11.63;;;2.60;;
25127;SDS011;13107;51.304;6.866;2023-05-16T01:55:29;6.30;;;2.50;;
25127;SDS011;13107;51.304;6.866;2023-05-16T01:59:53;9.27;;;3.05;;
25127;SDS011;13107;51.304;6.866;2023-05-16T02:03:55;13.65;;;2.72;;
25127;SDS011;13107;51.304;6.866;2023-05-16T02:07:58;13.62;;;3.50;;
25127;SDS011;13107;51.304;6.866;2023-05-16T02:12:00;11.90;;;2.92;;
25127;SDS011;13107;51.304;6.866;2023-05-16T02:16:02;14.07;;;2.92;;
25127;SDS011;13107;51.304;6.866;2023-05-16T02:20:04;8.20;;;3.10;;
25127;SDS011;13107;51.304;6.866;2023-05-16T02:24:07;12.40;;;3.45;;
25127;SDS011;13107;51.304;6.866;2023-05-16T02:28:09;13.70;;;2.78;;
25127;SDS011;13107;51.304;6.866;2023-05-16T02:32:11;14.82;;;3.17;;
25127;SDS011;13107;51.304;6.866;2023-05-16T02:36:12;12.43;;;2.90;;
25127;SDS011;13107;51.304;6.866;2023-05-16T02:40:14;15.52;;;3.30;;
25127;SDS011;13107;51.304;6.866;2023-05-16T02:44:16;18.45;;;3.85;;
25127;SDS011;13107;51.304;6.866;2023-05-16T02:48:18;15.65;;;3.15;;
25127;SDS011;13107;51.304;6.866;2023-05-16T02:52:20;16.70;;;3.45;;
25127;SDS011;13107;51.304;6.866;2023-05-16T02:56:21;13.68;;;3.62;;
25127;SDS011;13107;51.304;6.866;2023-05-16T03:00:23;14.87;;;3.30;;
25127;SDS011;13107;51.304;6.866;2023-05-16T03:04:25;21.65;;;3.70;;
25127;SDS011;13107;51.304;6.866;2023-05-16T03:08:27;14.52;;;3.55;;
25127;SDS011;13107;51.304;6.866;2023-05-16T03:12:29;19.92;;;3.30;;
25127;SDS011;13107;51.304;6.866;2023-05-16T03:16:31;13.48;;;3.03;;
25127;SDS011;13107;51.304;6.866;2023-05-16T03:20:33;16.52;;;3.15;;
25127;SDS011;13107;51.304;6.866;2023-05-16T03:24:34;18.00;;;3.53;;
25127;SDS011;13107;51.304;6.866;2023-05-16T03:28:36;20.08;;;3.83;;
25127;SDS011;13107;51.304;6.866;2023-05-16T03:32:38;12.98;;;3.53;;
25127;SDS011;13107;51.304;6.866;2023-05-16T03:36:40;19.70;;;3.95;;
25127;SDS011;13107;51.304;6.866;2023-05-16T03:40:42;14.77;;;4.35;;
25127;SDS011;13107;51.304;6.866;2023-05-16T03:44:43;16.90;;;3.62;;
25127;SDS011;13107;51.304;6.866;2023-05-16T03:48:46;19.10;;;3.28;;
25127;SDS011;13107;51.304;6.866;2023-05-16T03:52:47;13.35;;;2.70;;
25127;SDS011;13107;51.304;6.866;2023-05-16T03:56:49;14.32;;;3.25;;
25127;SDS011;13107;51.304;6.866;2023-05-16T04:00:51;15.23;;;2.85;;
25127;SDS011;13107;51.304;6.866;2023-05-16T04:04:53;13.95;;;2.30;;
25127;SDS011;13107;51.304;6.866;2023-05-16T04:08:55;17.73;;;2.33;;
25127;SDS011;13107;51.304;6.866;2023-05-16T04:12:57;19.20;;;3.12;;
25127;SDS011;13107;51.304;6.866;2023-05-16T04:16:58;16.33;;;2.62;;
25127;SDS011;13107;51.304;6.866;2023-05-16T04:21:00;19.73;;;2.83;;
25127;SDS011;13107;51.304;6.866;2023-05-16T04:25:03;25.80;;;2.78;;
25127;SDS011;13107;51.304;6.866;2023-05-16T04:29:05;19.42;;;2.55;;
25127;SDS011;13107;51.304;6.866;2023-05-16T04:33:06;11.88;;;2.30;;
25127;SDS011;13107;51.304;6.866;2023-05-16T04:37:08;17.70;;;2.72;;
25127;SDS011;13107;51.304;6.866;2023-05-16T04:41:10;20.02;;;2.85;;
25127;SDS011;13107;51.304;6.866;2023-05-16T04:45:12;16.20;;;2.50;;
25127;SDS011;13107;51.304;6.866;2023-05-16T04:49:14;16.75;;;2.45;;
25127;SDS011;13107;51.304;6.866;2023-05-16T04:53:16;12.57;;;2.22;;
25127;SDS011;13107;51.304;6.866;2023-05-16T04:57:18;11.88;;;2.05;;
25127;SDS011;13107;51.304;6.866;2023-05-16T05:01:20;16.25;;;2.97;;
25127;SDS011;13107;51.304;6.866;2023-05-16T05:05:22;16.48;;;2.92;;
25127;SDS011;13107;51.304;6.866;2023-05-16T05:09:24;16.05;;;2.53;;
25127;SDS011;13107;51.304;6.866;2023-05-16T05:13:26;9.52;;;2.20;;
25127;SDS011;13107;51.304;6.866;2023-05-16T05:17:27;16.02;;;2.15;;
25127;SDS011;13107;51.304;6.866;2023-05-16T05:21:30;12.77;;;2.00;;
25127;SDS011;13107;51.304;6.866;2023-05-16T05:25:32;16.15;;;2.22;;
25127;SDS011;13107;51.304;6.866;2023-05-16T05:29:38;13.35;;;2.12;;
25127;SDS011;13107;51.304;6.866;2023-05-16T05:33:40;13.88;;;2.08;;
25127;SDS011;13107;51.304;6.866;2023-05-16T05:37:42;16.83;;;2.12;;
25127;SDS011;13107;51.304;6.866;2023-05-16T05:41:44;14.63;;;2.42;;
25127;SDS011;13107;51.304;6.866;2023-05-16T05:45:46;11.77;;;2.53;;
25127;SDS011;13107;51.304;6.866;2023-05-16T05:49:48;14.55;;;2.30;;
25127;SDS011;13107;51.304;6.866;2023-05-16T05:53:51;14.32;;;2.33;;
25127;SDS011;13107;51.304;6.866;2023-05-16T05:57:53;13.43;;;2.03;;
25127;SDS011;13107;51.304;6.866;2023-05-16T06:01:55;13.88;;;2.33;;
25127;SDS011;13107;51.304;6.866;2023-05-16T06:05:57;15.02;;;2.40;;
25127;SDS011;13107;51.304;6.866;2023-05-16T06:09:58;18.48;;;2.08;;
25127;SDS011;13107;51.304;6.866;2023-05-16T06:14:05;11.60;;;1.90;;
25127;SDS011;13107;51.304;6.866;2023-05-16T06:18:07;13.57;;;2.08;;
25127;SDS011;13107;51.304;6.866;2023-05-16T06:22:09;8.73;;;1.85;;
25127;SDS011;13107;51.304;6.866;2023-05-16T06:26:11;10.98;;;2.10;;
25127;SDS011;13107;51.304;6.866;2023-05-16T06:30:12;11.40;;;2.03;;
25127;SDS011;13107;51.304;6.866;2023-05-16T06:34:14;9.70;;;1.50;;
25127;SDS011;13107;51.304;6.866;2023-05-16T06:38:16;10.15;;;1.65;;
25127;SDS011;13107;51.304;6.866;2023-05-16T06:42:20;11.73;;;1.85;;
25127;SDS011;13107;51.304;6.866;2023-05-16T06:46:21;13.68;;;2.05;;
25127;SDS011;13107;51.304;6.866;2023-05-16T06:50:23;9.10;;;1.85;;
25127;SDS011;13107;51.304;6.866;2023-05-16T06:54:25;10.85;;;2.05;;
25127;SDS011;13107;51.304;6.866;2023-05-16T06:58:27;13.65;;;1.90;;
25127;SDS011;13107;51.304;6.866;2023-05-16T07:02:29;9.45;;;1.58;;
25127;SDS011;13107;51.304;6.866;2023-05-16T07:06:31;12.40;;;1.73;;
25127;SDS011;13107;51.304;6.866;2023-05-16T07:10:32;11.77;;;1.55;;
25127;SDS011;13107;51.304;6.866;2023-05-16T07:14:34;13.20;;;1.40;;
25127;SDS011;13107;51.304;6.866;2023-05-16T07:18:36;8.18;;;1.45;;
25127;SDS011;13107;51.304;6.866;2023-05-16T07:22:38;8.02;;;1.50;;
25127;SDS011;13107;51.304;6.866;2023-05-16T07:26:41;12.27;;;1.50;;
25127;SDS011;13107;51.304;6.866;2023-05-16T07:30:42;14.30;;;2.10;;
25127;SDS011;13107;51.304;6.866;2023-05-16T07:34:44;7.95;;;1.15;;
25127;SDS011;13107;51.304;6.866;2023-05-16T07:38:46;7.30;;;1.02;;
25127;SDS011;13107;51.304;6.866;2023-05-16T07:42:48;11.55;;;1.58;;
25127;SDS011;13107;51.304;6.866;2023-05-16T07:46:50;7.85;;;1.35;;
25127;SDS011;13107;51.304;6.866;2023-05-16T07:50:52;8.75;;;1.65;;
25127;SDS011;13107;51.304;6.866;2023-05-16T07:54:56;6.35;;;1.10;;
25127;SDS011;13107;51.304;6.866;2023-05-16T07:58:58;6.40;;;1.25;;
25127;SDS011;13107;51.304;6.866;2023-05-16T08:03:00;10.85;;;1.25;;
25127;SDS011;13107;51.304;6.866;2023-05-16T08:07:02;10.73;;;1.30;;
25127;SDS011;13107;51.304;6.866;2023-05-16T08:11:04;5.15;;;0.93;;
25127;SDS011;13107;51.304;6.866;2023-05-16T08:15:06;6.95;;;1.10;;
25127;SDS011;13107;51.304;6.866;2023-05-16T08:19:08;10.35;;;1.58;;
25127;SDS011;13107;51.304;6.866;2023-05-16T08:23:10;5.43;;;1.00;;
25127;SDS011;13107;51.304;6.866;2023-05-16T08:27:12;5.47;;;0.93;;
25127;SDS011;13107;51.304;6.866;2023-05-16T08:31:14;8.25;;;1.15;;
25127;SDS011;13107;51.304;6.866;2023-05-16T08:35:16;7.22;;;1.02;;
25127;SDS011;13107;51.304;6.866;2023-05-16T08:39:17;6.72;;;1.37;;
25127;SDS011;13107;51.304;6.866;2023-05-16T08:43:19;10.48;;;1.70;;
25127;SDS011;13107;51.304;6.866;2023-05-16T08:47:21;8.52;;;1.40;;
25127;SDS011;13107;51.304;6.866;2023-05-16T08:51:27;7.75;;;1.37;;
25127;SDS011;13107;51.304;6.866;2023-05-16T08:55:35;6.18;;;1.17;;
25127;SDS011;13107;51.304;6.866;2023-05-16T08:59:39;7.78;;;1.90;;
25127;SDS011;13107;51.304;6.866;2023-05-16T09:03:42;11.63;;;1.42;;
25127;SDS011;13107;51.304;6.866;2023-05-16T09:07:44;10.40;;;1.70;;
25127;SDS011;13107;51.304;6.866;2023-05-16T09:11:46;9.30;;;1.65;;
25127;SDS011;13107;51.304;6.866;2023-05-16T09:16:06;9.43;;;1.20;;
25127;SDS011;13107;51.304;6.866;2023-05-16T09:20:12;6.03;;;1.10;;
25127;SDS011;13107;51.304;6.866;2023-05-16T09:24:19;6.15;;;0.88;;
25127;SDS011;13107;51.304;6.866;2023-05-16T09:28:26;4.47;;;1.10;;
25127;SDS011;13107;51.304;6.866;2023-05-16T09:32:28;7.07;;;1.02;;
25127;SDS011;13107;51.304;6.866;2023-05-16T09:36:32;7.28;;;1.15;;
25127;SDS011;13107;51.304;6.866;2023-05-16T09:40:34;7.37;;;1.25;;
25127;SDS011;13107;51.304;6.866;2023-05-16T09:44:45;8.10;;;1.40;;
25127;SDS011;13107;51.304;6.866;2023-05-16T09:48:49;6.97;;;1.40;;
25127;SDS011;13107;51.304;6.866;2023-05-16T09:52:52;7.85;;;1.62;;
25127;SDS011;13107;51.304;6.866;2023-05-16T09:56:54;6.55;;;0.90;;
25127;SDS011;13107;51.304;6.866;2023-05-16T10:00:56;5.15;;;0.98;;
25127;SDS011;13107;51.304;6.866;2023-05-16T10:04:58;4.28;;;1.15;;
25127;SDS011;13107;51.304;6.866;2023-05-16T10:09:00;7.62;;;0.93;;
25127;SDS011;13107;51.304;6.866;2023-05-16T10:13:04;7.80;;;1.17;;
25127;SDS011;13107;51.304;6.866;2023-05-16T10:17:09;6.47;;;1.00;;
25127;SDS011;13107;51.304;6.866;2023-05-16T10:21:14;4.53;;;0.80;;
25127;SDS011;13107;51.304;6.866;2023-05-16T10:25:35;8.90;;;1.15;;
25127;SDS011;13107;51.304;6.866;2023-05-16T10:29:48;7.95;;;1.30;;
25127;SDS011;13107;51.304;6.866;2023-05-16T10:33:55;7.17;;;1.20;;
25127;SDS011;13107;51.304;6.866;2023-05-16T10:37:57;7.00;;;1.30;;
25127;SDS011;13107;51.304;6.866;2023-05-16T10:42:00;5.57;;;1.20;;
25127;SDS011;13107;51.304;6.866;2023-05-16T10:46:07;8.27;;;1.45;;
25127;SDS011;13107;51.304;6.866;2023-05-16T10:50:37;9.75;;;1.30;;
25127;SDS011;13107;51.304;6.866;2023-05-16T10:54:38;6.10;;;1.52;;
25127;SDS011;13107;51.304;6.866;2023-05-16T10:58:42;10.15;;;2.08;;
25127;SDS011;13107;51.304;6.866;2023-05-16T11:02:44;11.12;;;1.65;;
25127;SDS011;13107;51.304;6.866;2023-05-16T11:06:50;7.95;;;1.30;;
25127;SDS011;13107;51.304;6.866;2023-05-16T11:11:35;4.87;;;1.17;;
25127;SDS011;13107;51.304;6.866;2023-05-16T11:15:33;8.40;;;1.40;;
25127;SDS011;13107;51.304;6.866;2023-05-16T11:19:51;5.00;;;1.00;;
25127;SDS011;13107;51.304;6.866;2023-05-16T11:28:30;3.42;;;0.90;;
25127;SDS011;13107;51.304;6.866;2023-05-16T11:32:33;5.15;;;0.93;;
25127;SDS011;13107;51.304;6.866;2023-05-16T11:36:37;3.40;;;1.10;;
25127;SDS011;13107;51.304;6.866;2023-05-16T11:40:47;3.87;;;0.95;;
25127;SDS011;13107;51.304;6.866;2023-05-16T11:44:49;3.12;;;0.60;;
25127;SDS011;13107;51.304;6.866;2023-05-16T11:48:51;2.55;;;0.68;;
25127;SDS011;13107;51.304;6.866;2023-05-16T11:52:53;3.03;;;0.80;;
25127;SDS011;13107;51.304;6.866;2023-05-16T11:56:57;3.65;;;0.70;;
25127;SDS011;13107;51.304;6.866;2023-05-16T12:01:00;3.65;;;0.90;;
25127;SDS011;13107;51.304;6.866;2023-05-16T12:05:06;4.95;;;0.80;;
25127;SDS011;13107;51.304;6.866;2023-05-16T12:09:12;3.83;;;0.70;;
25127;SDS011;13107;51.304;6.866;2023-05-16T12:13:19;3.97;;;0.80;;
25127;SDS011;13107;51.304;6.866;2023-05-16T12:17:23;4.25;;;1.00;;
25127;SDS011;13107;51.304;6.866;2023-05-16T12:21:25;5.20;;;0.73;;
25127;SDS011;13107;51.304;6.866;2023-05-16T12:25:30;4.72;;;0.60;;
25127;SDS011;13107;51.304;6.866;2023-05-16T12:29:33;1.83;;;0.50;;
25127;SDS011;13107;51.304;6.866;2023-05-16T12:33:35;2.67;;;0.70;;
25127;SDS011;13107;51.304;6.866;2023-05-16T12:37:38;2.47;;;0.98;;
25127;SDS011;13107;51.304;6.866;2023-05-16T12:41:40;3.12;;;0.90;;
25127;SDS011;13107;51.304;6.866;2023-05-16T12:45:50;2.83;;;0.80;;
25127;SDS011;13107;51.304;6.866;2023-05-16T12:49:53;3.80;;;0.70;;
25127;SDS011;13107;51.304;6.866;2023-05-16T12:53:55;1.83;;;0.50;;
25127;SDS011;13107;51.304;6.866;2023-05-16T12:58:10;3.92;;;0.50;;
25127;SDS011;13107;51.304;6.866;2023-05-16T13:02:12;3.75;;;0.50;;
25127;SDS011;13107;51.304;6.866;2023-05-16T13:06:14;1.92;;;0.50;;
25127;SDS011;13107;51.304;6.866;2023-05-16T13:10:16;3.17;;;0.60;;
25127;SDS011;13107;51.304;6.866;2023-05-16T13:14:18;3.62;;;0.70;;
25127;SDS011;13107;51.304;6.866;2023-05-16T13:18:20;4.90;;;0.90;;
25127;SDS011;13107;51.304;6.866;2023-05-16T13:22:22;3.17;;;0.60;;
25127;SDS011;13107;51.304;6.866;2023-05-16T13:26:23;2.75;;;0.70;;
25127;SDS011;13107;51.304;6.866;2023-05-16T13:30:25;2.47;;;0.40;;
25127;SDS011;13107;51.304;6.866;2023-05-16T13:34:27;5.72;;;1.00;;
25127;SDS011;13107;51.304;6.866;2023-05-16T13:38:29;4.97;;;0.82;;
25127;SDS011;13107;51.304;6.866;2023-05-16T13:42:31;3.15;;;0.85;;
25127;SDS011;13107;51.304;6.866;2023-05-16T13:46:33;3.72;;;0.75;;
25127;SDS011;13107;51.304;6.866;2023-05-16T13:50:35;4.95;;;0.80;;
25127;SDS011;13107;51.304;6.866;2023-05-16T13:54:43;3.78;;;1.00;;
25127;SDS011;13107;51.304;6.866;2023-05-16T13:58:45;3.70;;;0.85;;
25127;SDS011;13107;51.304;6.866;2023-05-16T14:02:52;6.00;;;0.82;;
25127;SDS011;13107;51.304;6.866;2023-05-16T14:06:54;2.78;;;0.85;;
25127;SDS011;13107;51.304;6.866;2023-05-16T14:10:56;1.85;;;0.60;;
25127;SDS011;13107;51.304;6.866;2023-05-16T14:14:58;4.32;;;0.98;;
25127;SDS011;13107;51.304;6.866;2023-05-16T14:19:00;5.60;;;1.10;;
25127;SDS011;13107;51.304;6.866;2023-05-16T14:23:02;4.65;;;1.30;;
25127;SDS011;13107;51.304;6.866;2023-05-16T14:27:04;2.67;;;1.10;;
25127;SDS011;13107;51.304;6.866;2023-05-16T14:31:06;7.57;;;1.85;;
25127;SDS011;13107;51.304;6.866;2023-05-16T14:35:08;5.07;;;0.90;;
25127;SDS011;13107;51.304;6.866;2023-05-16T14:39:10;3.67;;;1.05;;
25127;SDS011;13107;51.304;6.866;2023-05-16T14:43:12;4.93;;;1.00;;
25127;SDS011;13107;51.304;6.866;2023-05-16T14:47:14;7.43;;;1.10;;
25127;SDS011;13107;51.304;6.866;2023-05-16T14:51:15;4.10;;;0.98;;
25127;SDS011;13107;51.304;6.866;2023-05-16T14:55:19;6.10;;;1.23;;
25127;SDS011;13107;51.304;6.866;2023-05-16T14:59:21;4.90;;;1.00;;
25127;SDS011;13107;51.304;6.866;2023-05-16T15:03:23;9.05;;;1.37;;
25127;SDS011;13107;51.304;6.866;2023-05-16T15:07:26;8.50;;;1.77;;
25127;SDS011;13107;51.304;6.866;2023-05-16T15:11:28;7.62;;;1.65;;
25127;SDS011;13107;51.304;6.866;2023-05-16T15:15:30;4.75;;;1.80;;
25127;SDS011;13107;51.304;6.866;2023-05-16T15:19:33;5.78;;;1.50;;
25127;SDS011;13107;51.304;6.866;2023-05-16T15:23:34;7.75;;;1.37;;
25127;SDS011;13107;51.304;6.866;2023-05-16T15:27:36;4.50;;;1.35;;
25127;SDS011;13107;51.304;6.866;2023-05-16T15:31:38;5.90;;;1.33;;
25127;SDS011;13107;51.304;6.866;2023-05-16T15:35:40;3.15;;;1.25;;
25127;SDS011;13107;51.304;6.866;2023-05-16T15:39:42;6.93;;;1.58;;
25127;SDS011;13107;51.304;6.866;2023-05-16T15:43:44;6.05;;;1.50;;
25127;SDS011;13107;51.304;6.866;2023-05-16T15:47:45;4.20;;;1.30;;
25127;SDS011;13107;51.304;6.866;2023-05-16T15:51:47;5.20;;;1.55;;
25127;SDS011;13107;51.304;6.866;2023-05-16T15:55:50;6.35;;;1.40;;
25127;SDS011;13107;51.304;6.866;2023-05-16T15:59:52;4.85;;;1.05;;
25127;SDS011;13107;51.304;6.866;2023-05-16T16:03:54;4.20;;;1.15;;
25127;SDS011;13107;51.304;6.866;2023-05-16T16:07:56;4.93;;;1.15;;
25127;SDS011;13107;51.304;6.866;2023-05-16T16:11:58;7.07;;;1.30;;
25127;SDS011;13107;51.304;6.866;2023-05-16T16:16:00;4.95;;;1.10;;
25127;SDS011;13107;51.304;6.866;2023-05-16T16:20:02;7.40;;;1.17;;
25127;SDS011;13107;51.304;6.866;2023-05-16T16:24:04;4.70;;;1.20;;
25127;SDS011;13107;51.304;6.866;2023-05-16T16:28:05;7.03;;;1.48;;
25127;SDS011;13107;51.304;6.866;2023-05-16T16:32:07;7.30;;;1.70;;
25127;SDS011;13107;51.304;6.866;2023-05-16T16:36:09;5.97;;;1.60;;
25127;SDS011;13107;51.304;6.866;2023-05-16T16:40:11;6.80;;;1.45;;
25127;SDS011;13107;51.304;6.866;2023-05-16T16:44:13;6.60;;;1.83;;
25127;SDS011;13107;51.304;6.866;2023-05-16T16:48:15;6.12;;;1.73;;
25127;SDS011;13107;51.304;6.866;2023-05-16T16:52:17;4.60;;;1.67;;
25127;SDS011;13107;51.304;6.866;2023-05-16T16:56:18;7.72;;;2.12;;
25127;SDS011;13107;51.304;6.866;2023-05-16T17:00:22;6.07;;;1.70;;
25127;SDS011;13107;51.304;6.866;2023-05-16T17:04:24;6.50;;;1.83;;
25127;SDS011;13107;51.304;6.866;2023-05-16T17:08:26;4.62;;;1.80;;
25127;SDS011;13107;51.304;6.866;2023-05-16T17:12:27;6.50;;;1.48;;
25127;SDS011;13107;51.304;6.866;2023-05-16T17:16:29;5.65;;;1.60;;
25127;SDS011;13107;51.304;6.866;2023-05-16T17:20:34;7.03;;;1.23;;
25127;SDS011;13107;51.304;6.866;2023-05-16T17:24:37;6.03;;;1.65;;
25127;SDS011;13107;51.304;6.866;2023-05-16T17:28:39;4.47;;;1.60;;
25127;SDS011;13107;51.304;6.866;2023-05-16T17:32:40;7.65;;;1.80;;
25127;SDS011;13107;51.304;6.866;2023-05-16T17:36:42;7.25;;;1.42;;
25127;SDS011;13107;51.304;6.866;2023-05-16T17:40:44;4.75;;;1.35;;
25127;SDS011;13107;51.304;6.866;2023-05-16T17:44:46;5.70;;;1.35;;
25127;SDS011;13107;51.304;6.866;2023-05-16T17:48:48;5.35;;;1.73;;
25127;SDS011;13107;51.304;6.866;2023-05-16T17:52:49;7.85;;;1.62;;
25127;SDS011;13107;51.304;6.866;2023-05-16T17:56:51;6.55;;;1.83;;
25127;SDS011;13107;51.304;6.866;2023-05-16T18:00:53;6.70;;;1.60;;
25127;SDS011;13107;51.304;6.866;2023-05-16T18:04:55;4.43;;;1.50;;
25127;SDS011;13107;51.304;6.866;2023-05-16T18:08:57;8.05;;;1.80;;
25127;SDS011;13107;51.304;6.866;2023-05-16T18:12:59;6.25;;;2.05;;
25127;SDS011;13107;51.304;6.866;2023-05-16T18:17:01;8.18;;;2.12;;
25127;SDS011;13107;51.304;6.866;2023-05-16T18:21:03;7.22;;;2.22;;
25127;SDS011;13107;51.304;6.866;2023-05-16T18:25:06;8.00;;;2.47;;
25127;SDS011;13107;51.304;6.866;2023-05-16T18:29:10;8.50;;;2.28;;
25127;SDS011;13107;51.304;6.866;2023-05-16T18:33:12;7.10;;;2.17;;
25127;SDS011;13107;51.304;6.866;2023-05-16T18:37:13;8.13;;;1.87;;
25127;SDS011;13107;51.304;6.866;2023-05-16T18:41:16;5.43;;;1.83;;
25127;SDS011;13107;51.304;6.866;2023-05-16T18:45:18;6.37;;;1.90;;
25127;SDS011;13107;51.304;6.866;2023-05-16T18:49:21;6.40;;;2.20;;
25127;SDS011;13107;51.304;6.866;2023-05-16T18:53:22;10.43;;;1.87;;
25127;SDS011;13107;51.304;6.866;2023-05-16T18:57:24;7.20;;;1.77;;
25127;SDS011;13107;51.304;6.866;2023-05-16T19:01:26;6.10;;;1.92;;
25127;SDS011;13107;51.304;6.866;2023-05-16T19:05:28;4.78;;;1.83;;
25127;SDS011;13107;51.304;6.866;2023-05-16T19:09:31;6.80;;;2.55;;
25127;SDS011;13107;51.304;6.866;2023-05-16T19:13:33;6.55;;;1.77;;
25127;SDS011;13107;51.304;6.866;2023-05-16T19:17:34;6.40;;;1.83;;
25127;SDS011;13107;51.304;6.866;2023-05-16T19:21:37;6.00;;;1.70;;
25127;SDS011;13107;51.304;6.866;2023-05-16T19:25:39;6.47;;;2.35;;
25127;SDS011;13107;51.304;6.866;2023-05-16T19:29:47;6.68;;;1.75;;
25127;SDS011;13107;51.304;6.866;2023-05-16T19:33:49;5.07;;;1.40;;
25127;SDS011;13107;51.304;6.866;2023-05-16T19:37:51;7.10;;;1.33;;
25127;SDS011;13107;51.304;6.866;2023-05-16T19:41:53;5.50;;;1.40;;
25127;SDS011;13107;51.304;6.866;2023-05-16T19:45:57;9.07;;;1.77;;
25127;SDS011;13107;51.304;6.866;2023-05-16T19:49:59;9.25;;;1.70;;
25127;SDS011;13107;51.304;6.866;2023-05-16T19:54:00;6.80;;;1.50;;
25127;SDS011;13107;51.304;6.866;2023-05-16T19:58:02;8.30;;;1.25;;
25127;SDS011;13107;51.304;6.866;2023-05-16T20:02:04;4.80;;;1.50;;
25127;SDS011;13107;51.304;6.866;2023-05-16T20:06:06;5.32;;;1.25;;
25127;SDS011;13107;51.304;6.866;2023-05-16T20:10:08;6.15;;;1.83;;
25127;SDS011;13107;51.304;6.866;2023-05-16T20:14:10;6.65;;;1.40;;
25127;SDS011;13107;51.304;6.866;2023-05-16T20:18:12;3.75;;;1.12;;
25127;SDS011;13107;51.304;6.866;2023-05-16T20:22:15;6.93;;;1.23;;
25127;SDS011;13107;51.304;6.866;2023-05-16T20:26:17;7.85;;;2.50;;
25127;SDS011;13107;51.304;6.866;2023-05-16T20:30:19;7.07;;;1.80;;
25127;SDS011;13107;51.304;6.866;2023-05-16T20:34:21;3.90;;;1.10;;
25127;SDS011;13107;51.304;6.866;2023-05-16T20:38:22;6.68;;;1.48;;
25127;SDS011;13107;51.304;6.866;2023-05-16T20:42:24;3.60;;;1.30;;
25127;SDS011;13107;51.304;6.866;2023-05-16T20:46:26;6.62;;;2.05;;
25127;SDS011;13107;51.304;6.866;2023-05-16T20:50:28;6.40;;;1.85;;
25127;SDS011;13107;51.304;6.866;2023-05-16T20:54:31;7.00;;;2.42;;
25127;SDS011;13107;51.304;6.866;2023-05-16T20:58:33;7.20;;;2.08;;
25127;SDS011;13107;51.304;6.866;2023-05-16T21:02:35;6.18;;;2.75;;
25127;SDS011;13107;51.304;6.866;2023-05-16T21:06:37;6.80;;;2.00;;
25127;SDS011;13107;51.304;6.866;2023-05-16T21:10:39;11.73;;;2.80;;
25127;SDS011;13107;51.304;6.866;2023-05-16T21:14:40;4.45;;;1.80;;
25127;SDS011;13107;51.304;6.866;2023-05-16T21:18:44;5.97;;;1.90;;
25127;SDS011;13107;51.304;6.866;2023-05-16T21:22:46;10.90;;;1.90;;
25127;SDS011;13107;51.304;6.866;2023-05-16T21:26:48;5.65;;;1.70;;
25127;SDS011;13107;51.304;6.866;2023-05-16T21:30:49;7.15;;;2.00;;
25127;SDS011;13107;51.304;6.866;2023-05-16T21:34:51;6.82;;;2.78;;
25127;SDS011;13107;51.304;6.866;2023-05-16T21:38:53;3.53;;;1.80;;
25127;SDS011;13107;51.304;6.866;2023-05-16T21:42:54;6.25;;;2.00;;
25127;SDS011;13107;51.304;6.866;2023-05-16T21:46:56;5.57;;;2.08;;
25127;SDS011;13107;51.304;6.866;2023-05-16T21:50:58;6.47;;;1.83;;
25127;SDS011;13107;51.304;6.866;2023-05-16T21:54:59;4.10;;;1.62;;
25127;SDS011;13107;51.304;6.866;2023-05-16T21:59:01;7.62;;;1.90;;
25127;SDS011;13107;51.304;6.866;2023-05-16T22:03:03;4.25;;;1.75;;
25127;SDS011;13107;51.304;6.866;2023-05-16T22:07:05;6.65;;;2.00;;
25127;SDS011;13107;51.304;6.866;2023-05-16T22:11:07;5.12;;;1.73;;
25127;SDS011;13107;51.304;6.866;2023-05-16T22:15:08;5.20;;;2.00;;
25127;SDS011;13107;51.304;6.866;2023-05-16T22:19:10;4.55;;;2.08;;
25127;SDS011;13107;51.304;6.866;2023-05-16T22:23:12;6.05;;;1.87;;
25127;SDS011;13107;51.304;6.866;2023-05-16T22:27:14;10.65;;;2.05;;
25127;SDS011;13107;51.304;6.866;2023-05-16T22:31:16;2.58;;;1.20;;
25127;SDS011;13107;51.304;6.866;2023-05-16T22:35:18;4.15;;;1.33;;
25127;SDS011;13107;51.304;6.866;2023-05-16T22:39:21;7.35;;;1.87;;
25127;SDS011;13107;51.304;6.866;2023-05-16T22:43:23;4.87;;;1.62;;
25127;SDS011;13107;51.304;6.866;2023-05-16T22:47:25;5.85;;;1.70;;
25127;SDS011;13107;51.304;6.866;2023-05-16T22:51:29;5.37;;;1.48;;
25127;SDS011;13107;51.304;6.866;2023-05-16T22:55:31;7.87;;;1.98;;
25127;SDS011;13107;51.304;6.866;2023-05-16T22:59:34;7.10;;;1.75;;
25127;SDS011;13107;51.304;6.866;2023-05-16T23:03:35;6.45;;;1.62;;
25127;SDS011;13107;51.304;6.866;2023-05-16T23:07:37;5.10;;;1.30;;
25127;SDS011;13107;51.304;6.866;2023-05-16T23:11:39;4.05;;;1.10;;
25127;SDS011;13107;51.304;6.866;2023-05-16T23:15:41;6.53;;;1.60;;
25127;SDS011;13107;51.304;6.866;2023-05-16T23:19:43;8.57;;;1.92;;
25127;SDS011;13107;51.304;6.866;2023-05-16T23:23:44;4.65;;;1.35;;
25127;SDS011;13107;51.304;6.866;2023-05-16T23:27:46;6.78;;;1.52;;
25127;SDS011;13107;51.304;6.866;2023-05-16T23:31:48;4.70;;;1.40;;
25127;SDS011;13107;51.304;6.866;2023-05-16T23:35:50;6.28;;;1.50;;
25127;SDS011;13107;51.304;6.866;2023-05-16T23:39:52;3.97;;;1.10;;
25127;SDS011;13107;51.304;6.866;2023-05-16T23:43:54;5.87;;;1.42;;
25127;SDS011;13107;51.304;6.866;2023-05-16T23:47:56;5.87;;;1.50;;
25127;SDS011;13107;51.304;6.866;2023-05-16T23:51:57;6.85;;;1.23;;
25127;SDS011;13107;51.304;6.866;2023-05-16T23:55:59;6.43;;;1.52;;
